Strong, Arkansas
Current Conditions -  °F | °C
As of 8:53 AM on Tuesday 21 Oct 2014 (Local Time) from KELD Reporting Station
Overcast Overcast  
Wind Chill: 61°   Ceiling: 5500
Heat Index: 61°   Visibility: 7mi
Dew Point: 58°   Wind: 3mph
Humidity: 90%   Direction: 350°N
Pressure: 30.12"   Gusts: NA
Location:  33.11°N, 92.33°W
Report Text: KELD 211353Z AUTO 35003KT 7SM OVC055 16/14 A3012 RMK AO2 SLP198 T01610144
Loading
Personal Weather Stations






























Interactive Weather Map
Tropical Storm Tracking
New forecast layout! Learn more

10-Day Weather Forecast

Advertisements
Track Severe Weather on mobile